Startpagina
METAR-TAF:

METAR-TAF

Vliegvelden :

Chulitna, Alaska, Verenigde Staten

breedte: 62-53N, lengte: 149-50W, hoogte: 381 m

Actueel weer

Dit bericht is 59 minuten geleden gemaakt, om 22:52 UTC
Wind 4 kt uit het noorden
Temperatuur 11°C
Vochtigheid 6%
Druk 1002 hPa
Zicht: 24.1 km
Gebroken wolken op 3000 ft
Gebroken wolken op 4000 ft

METAR: PAEC 212252Z 36004KT 15SM BKN030 BKN040 11/M26 A2958 RMK NOSPECI

Tijdstip: 15:51 (23:51 UTC)


TAF: ontbreekt

Waarnemingen en weersverwachtingen van meer dan 4000 vliegvelden (METAR en TAF).

De beschikbare stations zijn de gele en rode punten op de kaart.

Ga met uw muis naar het station om de naam te zien.

Klik dan om waarnemingen en weersverwachtingen te zien.

kaart wijzigen: klik op de groene knoppen met een zwart kruis om in te zoomen, op de groene knop met een streepje om uit te zoomen of op de groene pijlen voor aangrenzende kaarten.


METAR-TAF: